Time;durP1;ratioP1;P1;durP2;ratioP2;P2;SDS_P1;SDS_P2;PMS_P1;PMS_P2;Temp;Humidity;BMP_temperature;BMP_pressure;BME280_temperature;BME280_humidity;BME280_pressure;Samples;Min_cycle;Max_cycle;Signal;HPM_P1;HPM_P2
2022/08/05 00:00:30;;;;;;;9.52;4.82;;;18.10;99.90;;;;;;5033495;28;20038;-68
2022/08/05 00:02:57;;;;;;;9.60;4.65;;;17.60;99.90;;;;;;5033321;28;20056;-68
2022/08/05 00:05:23;;;;;;;11.55;5.03;;;;;;;;;;5033759;28;20045;-68
2022/08/05 00:07:48;;;;;;;14.73;5.22;;;17.80;99.90;;;;;;5016033;28;20045;-68
2022/08/05 00:10:14;;;;;;;11.77;5.00;;;17.30;99.90;;;;;;5033310;28;20397;-68
2022/08/05 00:12:40;;;;;;;15.93;5.63;;;17.80;99.90;;;;;;5015744;28;20389;-67
2022/08/05 00:15:06;;;;;;;15.60;5.70;;;17.90;99.90;;;;;;5033665;28;20505;-67
2022/08/05 00:17:32;;;;;;;9.85;5.35;;;;;;;;;;5033488;28;20041;-68
2022/08/05 00:19:58;;;;;;;12.27;5.35;;;17.80;99.90;;;;;;5033335;28;20073;-68
2022/08/05 00:22:23;;;;;;;11.02;5.70;;;18.40;99.90;;;;;;5033291;28;20084;-68
2022/08/05 00:24:49;;;;;;;11.57;5.30;;;18.20;99.90;;;;;;5015536;28;20037;-68
2022/08/05 00:27:15;;;;;;;12.00;5.80;;;18.00;99.90;;;;;;5033472;28;20053;-68
2022/08/05 00:29:40;;;;;;;14.00;5.55;;;18.00;99.90;;;;;;5033359;28;20045;-67
2022/08/05 00:32:09;;;;;;;14.90;5.80;;;18.00;99.90;;;;;;5015367;28;20050;-68
2022/08/05 00:34:35;;;;;;;15.52;6.57;;;18.00;99.90;;;;;;5033368;28;20461;-68
2022/08/05 00:37:01;;;;;;;14.27;6.30;;;18.00;99.90;;;;;;5033146;28;20080;-68
2022/08/05 00:39:26;;;;;;;14.88;6.53;;;17.70;99.90;;;;;;5032996;28;20486;-67
2022/08/05 00:41:52;;;;;;;11.80;6.05;;;18.00;99.90;;;;;;5033149;28;20072;-68
2022/08/05 00:44:18;;;;;;;12.52;5.90;;;18.60;99.90;;;;;;5015235;28;20042;-67
2022/08/05 00:46:44;;;;;;;13.68;6.25;;;18.10;99.90;;;;;;5033466;28;20038;-67
2022/08/05 00:49:10;;;;;;;17.20;6.40;;;18.10;99.90;;;;;;5037036;28;20049;-68
2022/08/05 00:51:35;;;;;;;15.75;7.07;;;18.10;99.90;;;;;;5037181;28;20052;-63
2022/08/05 00:54:01;;;;;;;14.80;6.28;;;18.00;99.90;;;;;;5019314;28;20049;-63
2022/08/05 00:56:27;;;;;;;11.43;6.32;;;18.50;99.90;;;;;;5037153;28;20473;-63
2022/08/05 00:58:53;;;;;;;12.93;6.03;;;18.20;99.90;;;;;;5037000;28;20034;-64
2022/08/05 01:01:19;;;;;;;10.77;5.80;;;18.10;99.90;;;;;;5035738;28;20493;-63
2022/08/05 01:03:45;;;;;;;10.35;5.75;;;18.60;99.90;;;;;;5015860;28;20143;-63
2022/08/05 01:06:11;;;;;;;13.25;6.13;;;18.10;99.90;;;;;;4999543;28;20394;-64
2022/08/05 01:08:36;;;;;;;16.00;5.63;;;18.20;99.90;;;;;;5016386;28;20037;-63
2022/08/05 01:11:17;;;;;;;14.35;6.40;;;17.50;99.90;;;;;;5016791;28;20482;-63
2022/08/05 01:13:51;;;;;;;11.57;6.43;;;17.80;99.90;;;;;;5016889;28;20042;-63
2022/08/05 01:16:25;;;;;;;;;;;18.20;99.90;;;;;;5017232;28;20038;-63
2022/08/05 01:18:56;;;;;;;14.05;6.43;;;18.20;99.90;;;;;;5016728;28;19925;-64
2022/08/05 01:21:36;;;;;;;12.77;5.95;;;18.10;99.90;;;;;;4999408;28;20053;-64
2022/08/05 01:24:11;;;;;;;10.18;5.70;;;18.00;99.90;;;;;;4999084;28;20042;-63
2022/08/05 01:27:00;;;;;;;9.63;5.70;;;18.20;99.90;;;;;;5016681;28;20037;-64
2022/08/05 01:29:36;;;;;;;9.75;6.15;;;17.60;99.90;;;;;;5016502;28;20449;-64
2022/08/05 01:32:08;;;;;;;14.20;6.43;;;18.10;99.90;;;;;;5016419;28;20478;-63
2022/08/05 01:34:35;;;;;;;11.05;6.20;;;18.00;99.90;;;;;;4999102;28;20447;-63
2022/08/05 01:37:10;;;;;;;13.23;6.75;;;18.00;99.90;;;;;;5016363;28;20077;-64
2022/08/05 01:39:37;;;;;;;14.23;6.80;;;18.00;99.90;;;;;;5016413;28;20034;-63
2022/08/05 01:42:07;;;;;;;11.32;6.55;;;18.00;99.90;;;;;;5016437;28;20068;-63
2022/08/05 01:44:34;;;;;;;12.98;6.70;;;18.20;99.90;;;;;;5016513;28;20056;-63
2022/08/05 01:47:02;;;;;;;11.23;6.50;;;18.00;99.90;;;;;;5016500;28;20053;-63
2022/08/05 01:49:29;;;;;;;15.05;6.70;;;17.90;99.90;;;;;;5015778;28;20049;-64
2022/08/05 01:51:59;;;;;;;12.48;6.97;;;18.00;99.90;;;;;;5016322;28;20050;-64
2022/08/05 01:54:33;;;;;;;10.77;7.00;;;18.00;99.90;;;;;;5016586;28;20042;-63
2022/08/05 01:57:00;;;;;;;12.95;7.03;;;18.40;99.90;;;;;;5016249;28;20123;-63
2022/08/05 01:59:26;;;;;;;13.82;6.93;;;17.60;99.90;;;;;;4998316;28;20126;-63
2022/08/05 02:01:55;;;;;;;14.02;6.68;;;18.10;99.90;;;;;;5019606;28;20088;-63
2022/08/05 02:04:22;;;;;;;10.63;6.30;;;17.90;99.90;;;;;;5035853;28;20088;-63
2022/08/05 02:06:48;;;;;;;13.90;6.90;;;17.90;99.90;;;;;;5035655;28;20576;-64
2022/08/05 02:09:14;;;;;;;11.70;6.95;;;17.50;99.90;;;;;;5017836;28;20050;-63
2022/08/05 02:11:47;;;;;;;14.48;7.10;;;17.80;99.90;;;;;;5017819;28;20485;-64
2022/08/05 02:14:32;;;;;;;10.75;6.68;;;17.70;99.90;;;;;;5035580;28;20469;-63
2022/08/05 02:17:11;;;;;;;13.88;7.28;;;17.80;99.90;;;;;;5035551;28;20033;-64
2022/08/05 02:19:47;;;;;;;11.93;7.43;;;17.80;99.90;;;;;;5017816;28;20485;-63
2022/08/05 02:22:29;;;;;;;14.23;8.00;;;17.80;99.90;;;;;;5035590;28;20038;-63
2022/08/05 02:25:13;;;;;;;13.52;7.45;;;17.80;99.90;;;;;;5035444;28;20050;-64
2022/08/05 02:27:40;;;;;;;16.23;8.30;;;17.70;99.90;;;;;;5035309;28;20378;-64
2022/08/05 02:30:09;;;;;;;16.90;7.80;;;17.90;99.90;;;;;;5035124;28;20033;-63
2022/08/05 02:32:36;;;;;;;14.70;7.95;;;17.70;99.90;;;;;;5035314;28;20052;-63
2022/08/05 02:35:08;;;;;;;16.48;8.45;;;17.70;99.90;;;;;;5035258;28;20044;-64
2022/08/05 02:37:37;;;;;;;13.80;7.97;;;17.50;99.90;;;;;;5035019;28;20479;-64
2022/08/05 02:40:05;;;;;;;12.55;7.90;;;17.70;99.90;;;;;;5035270;28;20033;-63
2022/08/05 02:42:32;;;;;;;16.27;8.02;;;17.50;99.90;;;;;;5017524;28;20091;-63
2022/08/05 02:45:00;;;;;;;16.52;8.05;;;17.70;99.90;;;;;;5035231;28;20049;-63
2022/08/05 02:47:28;;;;;;;12.02;8.02;;;17.70;99.90;;;;;;5035132;28;20080;-63
2022/08/05 02:49:54;;;;;;;14.00;8.68;;;;;;;;;;5035468;28;20080;-68
2022/08/05 02:52:20;;;;;;;14.93;8.55;;;17.60;99.90;;;;;;5034911;28;20041;-68
2022/08/05 02:54:47;;;;;;;12.48;8.25;;;17.70;99.90;;;;;;5017451;28;20096;-67
2022/08/05 02:57:16;;;;;;;16.08;8.55;;;17.40;99.90;;;;;;5034920;28;20040;-67
2022/08/05 02:59:47;;;;;;;15.43;8.40;;;17.40;99.90;;;;;;5034550;28;20037;-67
2022/08/05 03:02:15;;;;;;;13.02;8.13;;;18.00;99.90;;;;;;5034472;28;20057;-63
2022/08/05 03:04:42;;;;;;;17.50;7.95;;;17.70;99.90;;;;;;5016979;28;20053;-63
2022/08/05 03:07:09;;;;;;;13.38;8.00;;;17.70;99.90;;;;;;5034956;28;20492;-67
2022/08/05 03:09:38;;;;;;;14.35;8.07;;;17.60;99.90;;;;;;5033841;28;20045;-68
2022/08/05 03:12:05;;;;;;;13.40;7.90;;;17.50;99.90;;;;;;5034554;28;20049;-67
2022/08/05 03:14:30;;;;;;;16.40;7.80;;;17.70;99.90;;;;;;5034451;28;20045;-68
2022/08/05 03:16:59;;;;;;;18.08;8.35;;;17.30;99.90;;;;;;5034601;28;20052;-68
2022/08/05 03:19:25;;;;;;;15.80;8.65;;;17.80;99.90;;;;;;5034232;28;20033;-68
2022/08/05 03:21:51;;;;;;;18.23;8.25;;;17.40;99.90;;;;;;5034353;28;20076;-68
2022/08/05 03:24:20;;;;;;;17.67;8.27;;;17.00;99.90;;;;;;5034523;28;20072;-63
2022/08/05 03:26:47;;;;;;;13.77;7.63;;;17.80;99.90;;;;;;5016655;28;20041;-67
2022/08/05 03:29:12;;;;;;;13.93;7.90;;;17.80;99.90;;;;;;5034080;28;20080;-68
2022/08/05 03:31:39;;;;;;;13.85;8.18;;;17.80;99.90;;;;;;5033918;28;20037;-67
2022/08/05 03:34:05;;;;;;;16.10;7.95;;;17.80;99.90;;;;;;5034054;28;20103;-67
2022/08/05 03:36:31;;;;;;;12.48;7.85;;;17.50;99.90;;;;;;5034215;28;20038;-68
2022/08/05 03:38:57;;;;;;;17.92;8.02;;;17.40;99.90;;;;;;5034195;28;20106;-67
2022/08/05 03:41:23;;;;;;;14.77;7.95;;;17.80;99.90;;;;;;5034043;28;20447;-67
2022/08/05 03:43:48;;;;;;;15.43;8.38;;;17.10;99.90;;;;;;5033761;28;20473;-67
2022/08/05 03:46:14;;;;;;;14.52;7.95;;;18.00;99.90;;;;;;5034147;28;20085;-68
2022/08/05 03:48:39;;;;;;;13.48;8.13;;;17.80;99.90;;;;;;5033840;28;20124;-67
2022/08/05 03:51:19;;;;;;;16.10;7.97;;;17.80;99.90;;;;;;5015913;28;20037;-67
2022/08/05 03:54:16;;;;;;;16.23;8.20;;;17.70;99.90;;;;;;5033774;28;20064;-67
2022/08/05 03:56:44;;;;;;;11.75;7.70;;;17.50;99.90;;;;;;5005956;28;20049;-68
2022/08/05 03:59:26;;;;;;;17.45;7.85;;;17.50;99.90;;;;;;5033644;28;20042;-67
2022/08/05 04:01:54;;;;;;;19.58;8.00;;;17.80;99.90;;;;;;5033662;28;20058;-68
2022/08/05 04:04:20;;;;;;;11.40;7.68;;;17.80;99.90;;;;;;5033554;28;20049;-67
2022/08/05 04:06:48;;;;;;;15.85;8.25;;;17.80;99.90;;;;;;5033512;28;20504;-67
2022/08/05 04:09:15;;;;;;;12.52;8.23;;;17.80;99.90;;;;;;5015889;28;20566;-68
2022/08/05 04:11:41;;;;;;;15.32;8.55;;;17.30;99.90;;;;;;5033601;28;20072;-64
2022/08/05 04:14:07;;;;;;;18.20;8.68;;;18.70;99.90;;;;;;5033149;28;20473;-63
2022/08/05 04:16:34;;;;;;;15.13;8.50;;;17.60;99.90;;;;;;5033485;28;20048;-63
2022/08/05 04:19:01;;;;;;;18.48;8.10;;;17.70;99.90;;;;;;5015832;28;20084;-63
2022/08/05 04:21:27;;;;;;;21.15;8.70;;;17.40;99.90;;;;;;5032255;28;20120;-63
2022/08/05 04:23:53;;;;;;;13.05;8.05;;;17.60;99.90;;;;;;5033239;28;20048;-63
2022/08/05 04:26:19;;;;;;;16.55;8.15;;;17.40;99.90;;;;;;5033630;28;20389;-63
2022/08/05 04:28:44;;;;;;;16.63;8.48;;;17.60;99.90;;;;;;5033049;28;20425;-63
2022/08/05 04:31:10;;;;;;;17.88;8.65;;;17.60;99.90;;;;;;5033219;28;20042;-63
2022/08/05 04:33:36;;;;;;;13.43;8.27;;;17.80;99.90;;;;;;5033355;28;20043;-63
2022/08/05 04:36:02;;;;;;;14.20;8.32;;;17.00;99.90;;;;;;5033216;28;20473;-63
2022/08/05 04:38:27;;;;;;;17.02;9.13;;;17.60;99.90;;;;;;5015601;28;20397;-63
2022/08/05 04:40:53;;;;;;;16.25;8.77;;;;;;;;;;5032750;28;20402;-63
2022/08/05 04:43:19;;;;;;;13.68;8.65;;;17.60;99.90;;;;;;5032822;28;20379;-67
2022/08/05 04:45:45;;;;;;;21.15;9.15;;;17.70;99.90;;;;;;5033101;28;20068;-67
2022/08/05 04:48:13;;;;;;;15.82;8.20;;;17.40;99.90;;;;;;5033115;28;20346;-67
2022/08/05 04:50:47;;;;;;;15.05;8.35;;;17.50;99.90;;;;;;5033137;28;20534;-64
2022/08/05 04:53:15;;;;;;;14.07;8.60;;;17.60;99.90;;;;;;5032821;28;20566;-64
2022/08/05 04:55:42;;;;;;;16.02;8.30;;;17.60;99.90;;;;;;5032674;28;20041;-64
2022/08/05 04:58:10;;;;;;;15.65;8.10;;;17.60;99.90;;;;;;5033077;28;20033;-63
2022/08/05 05:00:37;;;;;;;16.80;8.45;;;17.90;99.90;;;;;;5032944;28;20037;-64
2022/08/05 05:03:07;;;;;;;16.17;8.38;;;17.70;99.90;;;;;;5032981;28;20101;-63
2022/08/05 05:05:34;;;;;;;14.02;8.60;;;17.60;99.90;;;;;;5033096;28;20056;-63
2022/08/05 05:08:03;;;;;;;11.95;8.00;;;17.50;99.90;;;;;;5032645;28;20045;-63
2022/08/05 05:10:30;;;;;;;14.13;8.20;;;17.70;99.90;;;;;;5032609;28;20547;-63
2022/08/05 05:12:56;;;;;;;14.68;7.85;;;17.70;99.90;;;;;;5032759;28;20041;-63
2022/08/05 05:15:22;;;;;;;13.45;7.72;;;17.60;99.90;;;;;;5032861;28;20042;-62
2022/08/05 05:17:48;;;;;;;12.27;7.93;;;17.60;99.90;;;;;;5032835;28;20407;-63
2022/08/05 05:20:14;;;;;;;15.40;7.68;;;17.60;99.90;;;;;;5032615;28;20044;-63
2022/08/05 05:22:40;;;;;;;13.68;7.90;;;17.70;99.90;;;;;;5032611;28;20052;-63
2022/08/05 05:25:07;;;;;;;11.82;7.53;;;17.60;99.90;;;;;;5032359;28;20073;-62
2022/08/05 05:27:35;;;;;;;17.80;8.43;;;17.70;99.90;;;;;;5032469;28;20565;-62
2022/08/05 05:30:01;;;;;;;14.88;7.60;;;17.70;99.90;;;;;;5032892;28;20048;-62
2022/08/05 05:32:27;;;;;;;15.43;7.25;;;17.30;99.90;;;;;;5032501;28;20495;-63
2022/08/05 05:34:52;;;;;;;10.77;6.82;;;17.70;99.90;;;;;;5036199;28;20077;-63
2022/08/05 05:37:18;;;;;;;12.02;6.80;;;17.70;99.90;;;;;;5036061;28;20095;-63
2022/08/05 05:39:44;;;;;;;10.25;6.45;;;17.60;99.90;;;;;;5036373;28;20048;-63
2022/08/05 05:42:09;;;;;;;12.25;6.70;;;17.70;99.90;;;;;;5036257;28;20495;-63
2022/08/05 05:44:35;;;;;;;13.35;6.78;;;17.80;99.90;;;;;;5036059;28;20558;-67
2022/08/05 05:47:01;;;;;;;11.20;6.07;;;17.50;99.90;;;;;;5036052;28;20041;-67
2022/08/05 05:49:26;;;;;;;10.85;6.10;;;17.80;99.90;;;;;;5035895;28;20037;-67
2022/08/05 05:51:53;;;;;;;12.55;6.45;;;17.90;99.90;;;;;;5036201;28;20041;-67
2022/08/05 05:54:19;;;;;;;13.05;6.13;;;17.80;99.90;;;;;;5036108;28;20392;-67
2022/08/05 05:56:45;;;;;;;11.40;6.00;;;18.10;99.90;;;;;;5035945;28;20091;-67
2022/08/05 05:59:10;;;;;;;12.65;5.60;;;18.20;99.90;;;;;;5018026;28;20497;-67
2022/08/05 06:01:38;;;;;;;11.63;5.28;;;18.30;99.90;;;;;;5035686;28;20042;-67
2022/08/05 06:04:09;;;;;;;10.93;5.32;;;17.90;99.90;;;;;;5035758;28;20122;-63
2022/08/05 06:06:35;;;;;;;9.88;5.45;;;18.10;99.90;;;;;;5035579;28;20041;-63
2022/08/05 06:09:04;;;;;;;9.93;5.32;;;18.00;99.90;;;;;;5035803;28;20129;-63
2022/08/05 06:11:31;;;;;;;12.43;5.40;;;17.50;99.90;;;;;;5017764;28;20053;-63
2022/08/05 06:13:57;;;;;;;10.63;5.82;;;18.50;99.90;;;;;;5035486;28;20037;-63
2022/08/05 06:16:23;;;;;;;12.60;5.30;;;17.90;99.90;;;;;;5035460;28;20183;-63
2022/08/05 06:18:48;;;;;;;10.45;5.22;;;18.00;99.90;;;;;;5017756;28;20037;-63
2022/08/05 06:21:14;;;;;;;11.20;5.88;;;18.00;99.90;;;;;;5035278;28;20046;-63
2022/08/05 06:23:40;;;;;;;14.30;5.30;;;18.00;99.90;;;;;;5035500;28;20034;-63
2022/08/05 06:26:05;;;;;;;11.82;5.57;;;18.50;99.90;;;;;;5035436;28;20077;-63
2022/08/05 06:28:31;;;;;;;8.15;4.68;;;18.30;99.90;;;;;;5035471;28;20041;-62
2022/08/05 06:30:57;;;;;;;10.35;5.43;;;18.10;99.90;;;;;;5035473;28;20064;-63
2022/08/05 06:33:22;;;;;;;9.88;5.53;;;18.00;99.90;;;;;;5035205;28;20504;-62
2022/08/05 06:35:48;;;;;;;12.45;5.63;;;18.10;99.90;;;;;;5035054;28;20038;-63
2022/08/05 06:38:14;;;;;;;9.98;5.28;;;18.20;99.90;;;;;;5035321;28;20042;-63
2022/08/05 06:40:41;;;;;;;9.05;4.80;;;18.60;99.90;;;;;;5017451;28;20382;-63
2022/08/05 06:43:07;;;;;;;9.15;4.63;;;18.60;99.90;;;;;;5035037;28;20045;-62
2022/08/05 06:45:33;;;;;;;10.93;4.80;;;18.50;99.90;;;;;;5033864;28;20125;-63
2022/08/05 06:47:59;;;;;;;8.80;4.55;;;18.90;99.90;;;;;;5034652;28;20196;-63
2022/08/05 06:50:25;;;;;;;12.05;4.80;;;19.10;99.90;;;;;;5035138;28;20045;-63
2022/08/05 06:52:51;;;;;;;14.15;5.05;;;19.20;99.90;;;;;;5034849;28;20049;-62
2022/08/05 06:55:17;;;;;;;11.88;4.70;;;18.10;99.90;;;;;;5034900;28;20415;-62
2022/08/05 06:57:43;;;;;;;8.38;4.30;;;19.20;99.90;;;;;;5034574;28;20083;-62
2022/08/05 07:00:09;;;;;;;10.15;4.55;;;19.40;99.90;;;;;;5034498;28;20076;-62
2022/08/05 07:02:45;;;;;;;11.43;4.45;;;19.50;99.90;;;;;;5034268;28;20061;-63
2022/08/05 07:05:11;;;;;;;9.30;4.10;;;19.20;99.90;;;;;;5034432;28;20481;-63
2022/08/05 07:07:38;;;;;;;13.85;4.32;;;19.10;99.90;;;;;;5034283;28;20041;-63
2022/08/05 07:10:05;;;;;;;7.68;4.10;;;19.10;99.90;;;;;;5034390;28;20082;-63
2022/08/05 07:17:59;;;;;;;8.18;4.18;;;19.00;99.90;;;;;;4995848;28;20085;-63
2022/08/05 07:20:25;;;;;;;9.32;4.53;;;19.00;99.90;;;;;;5013121;28;20065;-62
2022/08/05 07:22:51;;;;;;;10.27;4.30;;;19.00;99.90;;;;;;5013305;28;20117;-63
2022/08/05 07:25:16;;;;;;;10.57;4.40;;;20.00;99.90;;;;;;5013322;28;20549;-64
2022/08/05 07:27:42;;;;;;;8.43;4.15;;;18.80;99.90;;;;;;5012969;28;20037;-63
2022/08/05 07:30:08;;;;;;;21.13;5.18;;;19.10;99.90;;;;;;5013230;28;20077;-63
2022/08/05 07:32:35;;;;;;;11.82;4.13;;;19.00;99.90;;;;;;5012827;28;20052;-64
2022/08/05 07:35:05;;;;;;;10.75;4.35;;;19.50;99.90;;;;;;5011812;28;20044;-62
2022/08/05 07:37:31;;;;;;;12.73;4.57;;;18.90;99.90;;;;;;5012960;28;20394;-62
2022/08/05 07:39:57;;;;;;;10.23;3.97;;;19.40;99.90;;;;;;5013259;28;20038;-63
2022/08/05 07:42:22;;;;;;;9.10;4.03;;;19.40;99.90;;;;;;5012800;28;20042;-63
2022/08/05 07:44:48;;;;;;;13.27;4.68;;;19.20;99.90;;;;;;5013198;28;20038;-63
2022/08/05 07:47:14;;;;;;;10.35;3.95;;;19.60;99.90;;;;;;5013184;28;20042;-62
2022/08/05 07:49:40;;;;;;;10.27;3.90;;;19.80;99.90;;;;;;5012825;28;20506;-65
2022/08/05 07:52:05;;;;;;;10.00;3.78;;;20.00;99.90;;;;;;5012895;28;20049;-63
2022/08/05 07:54:31;;;;;;;7.25;3.28;;;20.10;99.90;;;;;;5012486;28;20116;-64
2022/08/05 07:56:57;;;;;;;7.13;3.50;;;20.40;99.90;;;;;;5012657;28;20076;-68
2022/08/05 07:59:23;;;;;;;7.38;2.90;;;20.40;99.90;;;;;;5013298;28;20038;-68
2022/08/05 08:01:49;;;;;;;7.72;2.78;;;20.70;99.90;;;;;;5015824;28;20417;-68
2022/08/05 08:04:16;;;;;;;6.57;2.88;;;20.50;99.90;;;;;;5015199;28;20045;-68
2022/08/05 08:06:41;;;;;;;5.45;2.63;;;20.50;99.90;;;;;;5032189;28;20041;-67
2022/08/05 08:09:07;;;;;;;6.22;2.65;;;20.70;99.90;;;;;;5032474;28;20080;-68
2022/08/05 08:11:33;;;;;;;7.93;2.67;;;20.60;99.90;;;;;;5032122;28;20128;-63
2022/08/05 08:13:58;;;;;;;6.75;2.80;;;20.70;99.90;;;;;;5015122;28;20101;-64
2022/08/05 08:16:24;;;;;;;5.60;2.60;;;20.60;99.90;;;;;;5032223;28;20044;-67
2022/08/05 08:18:49;;;;;;;7.30;2.72;;;20.70;99.90;;;;;;5032482;28;20037;-67
2022/08/05 08:21:15;;;;;;;9.38;2.80;;;20.80;99.90;;;;;;5014690;28;20041;-68
2022/08/05 08:23:41;;;;;;;10.98;2.72;;;21.00;99.90;;;;;;5032049;28;20049;-67
2022/08/05 08:26:06;;;;;;;3.83;2.10;;;21.30;99.90;;;;;;5032150;28;20057;-67
2022/08/05 08:28:32;;;;;;;4.57;2.40;;;21.10;99.90;;;;;;5031885;28;20048;-67
2022/08/05 08:30:58;;;;;;;4.57;2.30;;;21.20;99.90;;;;;;5014578;28;20055;-67
2022/08/05 08:33:23;;;;;;;6.03;2.53;;;21.20;99.90;;;;;;5031815;28;20030;-67
2022/08/05 08:35:49;;;;;;;6.35;2.20;;;21.30;99.90;;;;;;5032111;28;20071;-67
2022/08/05 08:38:15;;;;;;;6.35;2.20;;;21.30;99.90;;;;;;5032178;28;20037;-67
2022/08/05 08:40:41;;;;;;;6.78;2.13;;;21.50;99.90;;;;;;5032887;28;20041;-67
2022/08/05 08:43:12;;;;;;;5.63;2.38;;;21.70;99.90;;;;;;5015555;28;20033;-63
2022/08/05 08:45:38;;;;;;;8.38;3.00;;;21.40;99.90;;;;;;5033215;28;20049;-63
2022/08/05 08:48:07;;;;;;;6.57;2.80;;;21.40;99.90;;;;;;5033129;28;20049;-63
2022/08/05 08:50:35;;;;;;;5.05;2.22;;;21.50;99.90;;;;;;5032773;28;20042;-63
2022/08/05 08:53:06;;;;;;;4.75;2.05;;;21.50;99.90;;;;;;5032842;28;20051;-64
2022/08/05 08:55:33;;;;;;;4.68;2.10;;;21.50;99.90;;;;;;5032743;28;20092;-63
2022/08/05 08:58:02;;;;;;;8.50;2.47;;;21.50;99.90;;;;;;5032964;28;20456;-64
2022/08/05 09:00:29;;;;;;;7.43;2.17;;;21.60;99.90;;;;;;5032763;28;20042;-63
2022/08/05 09:02:56;;;;;;;3.88;1.70;;;21.60;99.90;;;;;;5031825;28;20061;-64
2022/08/05 09:05:22;;;;;;;5.00;1.90;;;21.70;99.90;;;;;;5032442;28;20049;-64
2022/08/05 09:07:51;;;;;;;5.75;2.45;;;21.80;99.90;;;;;;5033241;28;20119;-64
2022/08/05 09:10:18;;;;;;;4.25;1.88;;;21.80;99.90;;;;;;5036159;28;20111;-64
2022/08/05 09:12:43;;;;;;;5.45;1.80;;;21.60;99.90;;;;;;5035229;28;20049;-64
2022/08/05 09:15:09;;;;;;;5.80;1.73;;;21.80;99.90;;;;;;5036099;28;20037;-64
2022/08/05 09:17:35;;;;;;;4.50;1.65;;;21.90;99.90;;;;;;5035961;28;20120;-64
2022/08/05 09:20:03;;;;;;;4.82;2.00;;;22.00;99.90;;;;;;5036086;28;20135;-64
2022/08/05 09:22:49;;;;;;;4.97;1.90;;;21.90;99.90;;;;;;5036081;28;20048;-64
2022/08/05 09:25:17;;;;;;;;;;;21.90;99.90;;;;;;5036635;28;20045;-67
2022/08/05 09:27:43;;;;;;;3.97;1.77;;;21.90;99.90;;;;;;5036452;28;19917;-69
2022/08/05 09:30:09;;;;;;;8.20;1.70;;;22.00;99.90;;;;;;5036345;28;20038;-67
2022/08/05 09:32:38;;;;;;;6.47;1.80;;;22.10;99.90;;;;;;5018582;28;20493;-67
2022/08/05 09:35:15;;;;;;;5.35;1.90;;;22.40;99.90;;;;;;5036016;28;20041;-67
2022/08/05 09:37:52;;;;;;;6.30;1.67;;;22.30;99.90;;;;;;5036294;28;20038;-66
2022/08/05 09:40:41;;;;;;;4.80;1.80;;;22.30;99.90;;;;;;5036007;28;20037;-67
2022/08/05 09:43:09;;;;;;;3.30;1.50;;;22.50;99.90;;;;;;5036185;28;20064;-67
2022/08/05 09:45:41;;;;;;;2.83;1.30;;;22.60;99.90;;;;;;5035850;28;20049;-67
2022/08/05 09:48:20;;;;;;;2.85;1.40;;;22.70;99.90;;;;;;5036015;28;20042;-66
2022/08/05 09:50:50;;;;;;;5.72;1.58;;;22.90;99.90;;;;;;5035878;28;20531;-66
2022/08/05 09:53:17;;;;;;;6.70;1.60;;;23.10;99.90;;;;;;5035938;28;20362;-66
2022/08/05 09:55:42;;;;;;;4.55;1.80;;;23.00;99.90;;;;;;5018060;28;20512;-66
2022/08/05 09:58:13;;;;;;;2.90;1.50;;;23.10;99.90;;;;;;5036041;28;20061;-67
2022/08/05 10:00:50;;;;;;;4.07;1.75;;;23.30;99.90;;;;;;5035781;28;20470;-65
2022/08/05 10:03:16;;;;;;;5.50;1.70;;;23.30;99.90;;;;;;5035690;28;20049;-65
2022/08/05 10:05:43;;;;;;;6.15;1.60;;;23.60;99.90;;;;;;5035636;28;20103;-65
2022/08/05 10:08:09;;;;;;;8.68;1.77;;;23.60;99.90;;;;;;5035414;28;20084;-65
2022/08/05 10:10:43;;;;;;;3.75;1.60;;;24.60;99.90;;;;;;5035606;28;20085;-65
2022/08/05 10:13:24;;;;;;;5.28;1.55;;;24.20;99.90;;;;;;5035429;28;20478;-65
2022/08/05 10:15:51;;;;;;;4.47;1.55;;;24.30;99.90;;;;;;5035626;28;20041;-66
2022/08/05 10:18:21;;;;;;;8.65;1.60;;;24.50;99.90;;;;;;5035828;28;20034;-63
2022/08/05 10:20:51;;;;;;;3.35;1.50;;;24.50;99.30;;;;;;5035247;28;20048;-63
2022/08/05 10:23:31;;;;;;;2.97;1.30;;;24.40;96.10;;;;;;5035592;28;20033;-63
2022/08/05 10:26:05;;;;;;;5.00;1.50;;;24.40;96.50;;;;;;5035434;28;20048;-63
2022/08/05 10:28:32;;;;;;;2.57;1.10;;;24.40;94.90;;;;;;5035406;28;20367;-62
2022/08/05 10:30:58;;;;;;;2.60;1.15;;;24.20;96.20;;;;;;5035294;28;20044;-63
2022/08/05 10:33:26;;;;;;;4.95;1.10;;;24.30;92.60;;;;;;5034963;28;20041;-63
2022/08/05 10:35:53;;;;;;;3.95;1.30;;;24.40;86.50;;;;;;5035226;28;20037;-62
2022/08/05 10:38:21;;;;;;;3.25;1.02;;;24.50;85.60;;;;;;5035019;28;20527;-63
2022/08/05 10:40:52;;;;;;;3.50;1.20;;;24.50;84.10;;;;;;5017323;28;20050;-63
2022/08/05 10:43:31;;;;;;;5.15;1.23;;;24.70;85.10;;;;;;5035042;28;20045;-65
2022/08/05 10:46:03;;;;;;;2.72;1.17;;;24.80;83.10;;;;;;5034974;28;20481;-66
2022/08/05 10:48:40;;;;;;;2.65;1.00;;;25.00;83.80;;;;;;5035224;28;20432;-66
2022/08/05 10:51:15;;;;;;;3.83;1.15;;;25.00;77.80;;;;;;5034910;28;20071;-66
2022/08/05 10:53:50;;;;;;;2.33;1.07;;;25.30;77.90;;;;;;5034856;28;20077;-66
2022/08/05 10:56:27;;;;;;;3.58;1.20;;;24.80;72.90;;;;;;5034650;28;20805;-66
2022/08/05 10:58:52;;;;;;;3.90;1.23;;;24.80;77.20;;;;;;5035075;28;20116;-66
2022/08/05 11:01:34;;;;;;;2.88;1.02;;;24.80;75.10;;;;;;5034819;28;20073;-66
2022/08/05 11:04:16;;;;;;;1.92;0.98;;;24.80;72.00;;;;;;5015033;28;20045;-66
2022/08/05 11:06:59;;;;;;;5.65;0.90;;;24.70;74.10;;;;;;5014668;28;20147;-66
2022/08/05 11:09:36;;;;;;;3.15;0.90;;;24.80;71.90;;;;;;4997325;28;20064;-66
2022/08/05 11:12:02;;;;;;;2.17;1.00;;;24.90;67.40;;;;;;5014754;28;20052;-66
2022/08/05 11:14:32;;;;;;;4.50;1.42;;;24.90;68.80;;;;;;5014872;28;20041;-66
2022/08/05 11:17:26;;;;;;;2.30;1.20;;;25.00;66.10;;;;;;5014464;28;20041;-66
2022/08/05 11:19:56;;;;;;;1.63;0.90;;;25.00;64.50;;;;;;5014645;28;20043;-66
2022/08/05 11:22:42;;;;;;;2.67;0.80;;;25.00;65.70;;;;;;5014722;28;20176;-66
2022/08/05 11:25:54;;;;;;;3.22;1.08;;;25.00;63.60;;;;;;5014247;28;20050;-67
2022/08/05 11:28:42;;;;;;;4.28;1.15;;;25.10;64.70;;;;;;5014592;28;20393;-67
2022/08/05 11:31:09;;;;;;;2.40;0.90;;;25.10;65.80;;;;;;5013670;28;20425;-68
2022/08/05 11:33:37;;;;;;;3.72;0.98;;;25.20;62.60;;;;;;5014250;28;20046;-66
2022/08/05 11:36:05;;;;;;;3.08;0.80;;;25.10;60.50;;;;;;5014189;28;20536;-67
2022/08/05 11:38:40;;;;;;;1.17;0.73;;;24.80;64.60;;;;;;5014282;28;20042;-66
2022/08/05 11:41:36;;;;;;;2.53;1.00;;;25.20;59.60;;;;;;5014535;28;20053;-64
2022/08/05 11:44:11;;;;;;;3.17;1.02;;;25.20;59.20;;;;;;5011086;28;20061;-64
2022/08/05 11:46:51;;;;;;;4.07;0.82;;;26.00;59.60;;;;;;5013260;28;20046;-65
2022/08/05 11:49:21;;;;;;;2.50;0.73;;;25.20;52.50;;;;;;5013975;28;20502;-64
2022/08/05 11:51:49;;;;;;;3.80;1.00;;;25.10;55.70;;;;;;4996445;28;20060;-64
2022/08/05 11:54:29;;;;;;;2.45;0.95;;;25.10;54.70;;;;;;5014417;28;20050;-65
2022/08/05 11:56:56;;;;;;;1.38;0.73;;;25.10;53.20;;;;;;5014076;28;20379;-64
2022/08/05 11:59:25;;;;;;;1.95;1.00;;;25.20;58.00;;;;;;5014038;28;20389;-63
2022/08/05 12:01:57;;;;;;;1.35;0.80;;;25.40;57.40;;;;;;5017202;28;20057;-64
2022/08/05 12:04:25;;;;;;;2.90;0.65;;;25.20;59.00;;;;;;5033588;28;20045;-64
2022/08/05 12:06:51;;;;;;;1.55;0.63;;;25.40;53.60;;;;;;5033465;28;20611;-64
2022/08/05 12:09:26;;;;;;;3.65;0.68;;;25.40;52.90;;;;;;5033191;28;20513;-66
2022/08/05 12:11:52;;;;;;;1.00;0.47;;;25.40;53.40;;;;;;5033637;28;20084;-65
2022/08/05 12:14:18;;;;;;;5.15;0.82;;;25.50;52.30;;;;;;5033241;28;20473;-66
2022/08/05 12:16:46;;;;;;;1.67;0.60;;;25.50;53.90;;;;;;5033517;28;20117;-65
2022/08/05 12:19:12;;;;;;;2.22;0.70;;;25.40;50.70;;;;;;5015608;28;20500;-65
2022/08/05 12:21:48;;;;;;;4.22;0.90;;;25.20;51.20;;;;;;5033153;28;20085;-65
2022/08/05 12:24:20;;;;;;;2.75;0.90;;;24.90;51.30;;;;;;5033473;28;20041;-64
2022/08/05 12:26:53;;;;;;;5.13;0.70;;;24.70;52.80;;;;;;5033342;28;20386;-64
2022/08/05 12:29:23;;;;;;;1.38;0.70;;;24.90;53.70;;;;;;5033342;28;20045;-65
2022/08/05 12:31:50;;;;;;;4.40;0.90;;;25.10;52.80;;;;;;5015523;28;20187;-65
2022/08/05 12:34:18;;;;;;;4.40;0.82;;;25.00;52.70;;;;;;5032960;28;20099;-64
2022/08/05 12:36:45;;;;;;;1.73;0.63;;;25.10;54.00;;;;;;5015407;28;20481;-64
2022/08/05 12:39:11;;;;;;;4.00;0.88;;;25.30;53.50;;;;;;5033475;28;20037;-65
2022/08/05 12:41:42;;;;;;;3.88;0.80;;;25.40;56.90;;;;;;5033395;28;20548;-65
2022/08/05 12:44:13;;;;;;;3.85;0.88;;;25.40;53.10;;;;;;5036021;28;20167;-64
2022/08/05 12:46:40;;;;;;;3.22;0.82;;;25.40;52.30;;;;;;5037101;28;20041;-64
2022/08/05 12:49:13;;;;;;;1.80;0.55;;;25.50;53.20;;;;;;5019560;28;20037;-64
2022/08/05 12:51:58;;;;;;;5.22;1.20;;;25.50;52.80;;;;;;5037226;28;20049;-63
2022/08/05 12:54:25;;;;;;;;;;;25.60;52.90;;;;;;5037371;28;20056;-64
2022/08/05 12:57:02;;;;;;;4.82;1.08;;;25.40;54.30;;;;;;5036918;28;19924;-65